createdAt,value
2019-04-27T00:00:44.979Z,10.2
2019-04-27T00:01:48.252Z,10.1
2019-04-27T00:02:45.108Z,10.1
2019-04-27T00:03:45.180Z,10.1
2019-04-27T00:04:48.567Z,10.1
2019-04-27T00:05:45.280Z,10.1
2019-04-27T00:06:46.458Z,10.1
2019-04-27T00:07:45.401Z,10.1
2019-04-27T00:08:45.419Z,10.1
2019-04-27T00:09:50.111Z,10.1
2019-04-27T00:10:45.532Z,10.1
2019-04-27T00:11:45.615Z,10.1
2019-04-27T00:12:45.655Z,10.1
2019-04-27T00:13:45.695Z,10.1
2019-04-27T00:14:48.243Z,10.1
2019-04-27T00:15:45.811Z,10.1
2019-04-27T00:16:50.440Z,10.1
2019-04-27T00:17:49.270Z,10.1
2019-04-27T00:18:49.680Z,10.1
2019-04-27T00:19:46.018Z,10.1
2019-04-27T00:20:46.058Z,10.1
2019-04-27T00:21:46.108Z,10.1
2019-04-27T00:22:46.178Z,10.1
2019-04-27T00:23:46.264Z,10.1
2019-04-27T00:24:46.300Z,10.1
2019-04-27T00:25:46.322Z,10.1
2019-04-27T00:26:46.310Z,10.1
2019-04-27T00:27:46.403Z,10.1
2019-04-27T00:28:46.482Z,10.1
2019-04-27T00:29:46.519Z,10.1
2019-04-27T00:30:46.552Z,10.1
2019-04-27T00:31:46.617Z,10.1
2019-04-27T00:32:46.673Z,10.1
2019-04-27T00:33:46.781Z,10.1
2019-04-27T00:34:46.821Z,10.1
2019-04-27T00:35:46.869Z,10.1
2019-04-27T00:36:46.954Z,10.1
2019-04-27T00:37:46.987Z,10.1
2019-04-27T00:38:47.167Z,10.1
2019-04-27T00:39:47.105Z,10.1
2019-04-27T00:40:47.146Z,10
2019-04-27T00:41:47.177Z,10
2019-04-27T00:42:47.226Z,10
2019-04-27T00:43:47.280Z,10
2019-04-27T00:44:47.344Z,10
2019-04-27T00:45:47.383Z,10
2019-04-27T00:46:47.437Z,10
2019-04-27T00:47:56.141Z,10
2019-04-27T00:48:47.572Z,10
2019-04-27T00:49:47.619Z,10
2019-04-27T00:50:47.677Z,10
2019-04-27T00:51:47.740Z,10
2019-04-27T00:52:47.778Z,10
2019-04-27T00:53:47.829Z,10
2019-04-27T00:54:47.851Z,10
2019-04-27T00:55:47.916Z,10
2019-04-27T00:56:47.984Z,10
2019-04-27T00:57:48.024Z,10
2019-04-27T00:58:48.172Z,10
2019-04-27T00:59:48.168Z,10
2019-04-27T01:00:48.595Z,10
2019-04-27T01:01:48.274Z,10
2019-04-27T01:02:48.657Z,10
2019-04-27T01:03:48.387Z,10
2019-04-27T01:04:48.410Z,10
2019-04-27T01:05:48.469Z,10
2019-04-27T01:06:48.528Z,10
2019-04-27T01:07:48.570Z,10
2019-04-27T01:08:48.644Z,10
2019-04-27T01:09:48.711Z,10
2019-04-27T01:10:48.781Z,10
2019-04-27T01:11:48.832Z,10
2019-04-27T01:12:48.878Z,10
2019-04-27T01:13:48.980Z,10
2019-04-27T01:14:49.033Z,10
2019-04-27T01:15:49.092Z,10
2019-04-27T01:16:51.365Z,10
2019-04-27T01:17:49.219Z,10
2019-04-27T01:18:49.262Z,9.9
2019-04-27T01:19:49.449Z,10
2019-04-27T01:20:49.351Z,9.9
2019-04-27T01:21:49.709Z,9.9
2019-04-27T01:22:49.448Z,9.9
2019-04-27T01:23:49.545Z,9.9
2019-04-27T01:24:49.669Z,9.9
2019-04-27T01:25:51.026Z,9.9
2019-04-27T01:26:49.978Z,9.9
2019-04-27T01:27:49.766Z,9.9
2019-04-27T01:28:49.820Z,9.9
2019-04-27T01:29:50.084Z,9.9
2019-04-27T01:30:49.883Z,9.9
2019-04-27T01:31:49.959Z,9.8
2019-04-27T01:32:50.030Z,9.8
2019-04-27T01:33:50.080Z,9.8
2019-04-27T01:34:50.101Z,9.8
2019-04-27T01:35:50.160Z,9.8
2019-04-27T01:36:50.198Z,9.8
2019-04-27T01:37:50.271Z,9.8
2019-04-27T01:38:50.348Z,9.8
2019-04-27T01:39:50.530Z,9.8
2019-04-27T01:40:50.476Z,9.8
2019-04-27T01:41:50.499Z,9.8
2019-04-27T01:42:50.568Z,9.8
2019-04-27T01:43:50.601Z,9.8
2019-04-27T01:44:51.040Z,9.8
2019-04-27T01:45:50.689Z,9.8
2019-04-27T01:46:50.734Z,9.8
2019-04-27T01:47:50.785Z,9.8
2019-04-27T01:48:50.846Z,9.8
2019-04-27T01:49:50.902Z,9.8
2019-04-27T01:50:50.968Z,9.8
2019-04-27T01:51:50.977Z,9.8
2019-04-27T01:52:51.062Z,9.8
2019-04-27T01:53:51.088Z,9.8
2019-04-27T01:54:51.151Z,9.8
2019-04-27T01:55:51.263Z,9.8
2019-04-27T01:56:51.228Z,9.7
2019-04-27T01:57:51.303Z,9.7
2019-04-27T01:58:51.358Z,9.8
2019-04-27T01:59:51.383Z,9.7
2019-04-27T02:00:51.483Z,9.7
2019-04-27T02:01:51.539Z,9.7
2019-04-27T02:02:51.573Z,9.7
2019-04-27T02:03:51.615Z,9.7
2019-04-27T02:04:51.686Z,9.7
2019-04-27T02:05:51.733Z,9.7
2019-04-27T02:06:51.901Z,9.7
2019-04-27T02:07:51.870Z,9.7
2019-04-27T02:08:52.011Z,9.7
2019-04-27T02:09:51.947Z,9.7
2019-04-27T02:10:52.022Z,9.7
2019-04-27T02:11:52.072Z,9.7
2019-04-27T02:12:52.106Z,9.7
2019-04-27T02:13:52.161Z,9.7
2019-04-27T02:14:52.251Z,9.7
2019-04-27T02:15:52.264Z,9.7
2019-04-27T02:16:52.337Z,9.7
2019-04-27T02:17:52.394Z,9.7
2019-04-27T02:18:55.030Z,9.7
2019-04-27T02:19:52.525Z,9.7
2019-04-27T02:20:52.654Z,9.7
2019-04-27T02:21:52.629Z,9.7
2019-04-27T02:22:52.695Z,9.7
2019-04-27T02:23:52.768Z,9.7
2019-04-27T02:24:52.805Z,9.7
2019-04-27T02:25:52.840Z,9.7
2019-04-27T02:26:52.924Z,9.7
2019-04-27T02:27:52.992Z,9.7
2019-04-27T02:28:53.028Z,9.7
2019-04-27T02:29:53.134Z,9.7
2019-04-27T02:30:53.399Z,9.6
2019-04-27T02:31:53.313Z,9.6
2019-04-27T02:32:53.261Z,9.6
2019-04-27T02:33:53.358Z,9.6
2019-04-27T02:34:53.361Z,9.6
2019-04-27T02:35:53.433Z,9.6
2019-04-27T02:36:53.496Z,9.5
2019-04-27T02:37:53.509Z,9.5
2019-04-27T02:38:53.640Z,9.5
2019-04-27T02:39:53.665Z,9.5
2019-04-27T02:40:53.757Z,9.5
2019-04-27T02:41:53.719Z,9.5
2019-04-27T02:42:54.535Z,9.4
2019-04-27T02:43:53.872Z,9.4
2019-04-27T02:44:53.918Z,9.4
2019-04-27T02:45:54.014Z,9.4
2019-04-27T02:46:55.710Z,9.4
2019-04-27T02:47:54.101Z,9.4
2019-04-27T02:49:00.450Z,9.4
2019-04-27T02:49:54.233Z,9.4
2019-04-27T02:50:57.057Z,9.4
2019-04-27T02:51:54.309Z,9.4
2019-04-27T02:52:54.356Z,9.4
2019-04-27T02:53:54.459Z,9.4
2019-04-27T02:54:54.456Z,9.4
2019-04-27T02:55:54.520Z,9.4
2019-04-27T02:56:54.645Z,9.4
2019-04-27T02:57:54.641Z,9.4
2019-04-27T02:58:54.822Z,9.4
2019-04-27T02:59:59.702Z,9.4
2019-04-27T03:00:58.956Z,9.4
2019-04-27T03:01:54.856Z,9.4
2019-04-27T03:02:59.720Z,9.4
2019-04-27T03:03:54.996Z,9.4
2019-04-27T03:04:55.057Z,9.4
2019-04-27T03:05:55.174Z,9.4
2019-04-27T03:07:00.017Z,9.4
2019-04-27T03:07:55.392Z,9.4
2019-04-27T03:09:01.956Z,9.3
2019-04-27T03:09:55.293Z,9.3
2019-04-27T03:10:55.361Z,9.3
2019-04-27T03:11:55.378Z,9.3
2019-04-27T03:12:55.460Z,9.3
2019-04-27T03:13:55.579Z,9.3
2019-04-27T03:14:55.618Z,9.3
2019-04-27T03:15:55.670Z,9.3
2019-04-27T03:16:55.723Z,9.3
2019-04-27T03:17:55.750Z,9.3
2019-04-27T03:19:10.015Z,9.3
2019-04-27T03:19:55.931Z,9.3
2019-04-27T03:20:55.995Z,9.3
2019-04-27T03:21:56.058Z,9.3
2019-04-27T03:22:56.091Z,9.3
2019-04-27T03:23:56.156Z,9.3
2019-04-27T03:24:56.172Z,9.4
2019-04-27T03:25:56.237Z,9.4
2019-04-27T03:26:56.282Z,9.4
2019-04-27T03:27:56.314Z,9.4
2019-04-27T03:28:56.385Z,9.4
2019-04-27T03:29:56.415Z,9.4
2019-04-27T03:30:56.503Z,9.4
2019-04-27T03:31:56.539Z,9.4
2019-04-27T03:32:58.457Z,9.4
2019-04-27T03:34:00.061Z,9.4
2019-04-27T03:34:56.698Z,9.4
2019-04-27T03:35:56.780Z,9.4
2019-04-27T03:37:01.821Z,9.4
2019-04-27T03:37:57.143Z,9.3
2019-04-27T03:38:56.902Z,9.3
2019-04-27T03:39:56.993Z,9.3
2019-04-27T03:40:57.049Z,9.3
2019-04-27T03:41:57.160Z,9.3
2019-04-27T03:42:59.295Z,9.3
2019-04-27T03:43:59.500Z,9.3
2019-04-27T03:45:00.630Z,9.3
2019-04-27T03:46:00.095Z,9.3
2019-04-27T03:46:59.460Z,9.3
2019-04-27T03:47:57.425Z,9.3
2019-04-27T03:48:59.845Z,9.3
2019-04-27T03:49:59.849Z,9.3
2019-04-27T03:50:59.472Z,9.3
2019-04-27T03:52:00.219Z,9.3
2019-04-27T03:53:01.246Z,9.3
2019-04-27T03:54:00.028Z,9.3
2019-04-27T03:54:59.689Z,9.3
2019-04-27T03:55:59.921Z,9.3
2019-04-27T03:56:59.053Z,9.3
2019-04-27T03:58:00.063Z,9.3
2019-04-27T03:58:59.743Z,9.3
2019-04-27T03:59:59.619Z,9.3
2019-04-27T04:01:00.011Z,9.2
2019-04-27T04:01:58.845Z,9.2
2019-04-27T04:03:00.497Z,9.2
2019-04-27T04:03:59.845Z,9.2
2019-04-27T04:05:00.595Z,9.2
2019-04-27T04:06:00.201Z,9.2
2019-04-27T04:06:59.623Z,9.2
2019-04-27T04:08:00.392Z,9.2
2019-04-27T04:09:00.156Z,9.1
2019-04-27T04:10:00.170Z,9.1
2019-04-27T04:10:59.601Z,9.1
2019-04-27T04:12:04.544Z,9.1
2019-04-27T04:13:01.231Z,9.1
2019-04-27T04:14:00.076Z,9.1
2019-04-27T04:14:59.765Z,9.1
2019-04-27T04:16:02.939Z,9.1
2019-04-27T04:17:02.331Z,9.1
2019-04-27T04:17:59.517Z,9.1
2019-04-27T04:19:00.709Z,9.1
2019-04-27T04:20:01.110Z,9.1
2019-04-27T04:21:00.396Z,9.1
2019-04-27T04:21:59.902Z,9.1
2019-04-27T04:23:00.139Z,9.1
2019-04-27T04:24:00.793Z,9.1
2019-04-27T04:25:02.637Z,9.1
2019-04-27T04:25:59.825Z,9.1
2019-04-27T04:27:00.082Z,9.1
2019-04-27T04:28:00.532Z,9.1
2019-04-27T04:29:01.144Z,9.1
2019-04-27T04:30:01.778Z,9.1
2019-04-27T04:31:00.439Z,9.1
2019-04-27T04:32:00.523Z,9.1
2019-04-27T04:33:00.102Z,9.1
2019-04-27T04:34:00.039Z,9.1
2019-04-27T04:35:01.272Z,9.1
2019-04-27T04:36:00.078Z,9.1
2019-04-27T04:37:00.551Z,9.1
2019-04-27T04:38:00.617Z,9.1
2019-04-27T04:39:00.908Z,9.1
2019-04-27T04:40:00.547Z,9.1
2019-04-27T04:41:05.535Z,9.1
2019-04-27T04:42:02.202Z,9.1
2019-04-27T04:43:03.230Z,9.1
2019-04-27T04:44:03.062Z,9.1
2019-04-27T04:45:00.894Z,9.1
2019-04-27T04:46:01.062Z,9.1
2019-04-27T04:47:00.799Z,9.1
2019-04-27T04:48:00.769Z,9.1
2019-04-27T04:49:00.741Z,9.1
2019-04-27T04:50:14.549Z,9.1
2019-04-27T04:51:00.852Z,9.1
2019-04-27T04:52:00.901Z,9.1
2019-04-27T04:53:01.067Z,9.1
2019-04-27T04:54:00.989Z,9.1
2019-04-27T04:55:02.491Z,9.1
2019-04-27T04:56:01.222Z,9.1
2019-04-27T04:57:01.198Z,9.1
2019-04-27T04:58:01.263Z,9.1
2019-04-27T04:59:01.297Z,9.1
2019-04-27T05:00:01.355Z,9.1
2019-04-27T05:01:01.815Z,9.1
2019-04-27T05:02:02.317Z,9.1
2019-04-27T05:03:01.513Z,9.1
2019-04-27T05:04:01.523Z,9.1
2019-04-27T05:05:01.587Z,9.1
2019-04-27T05:06:01.646Z,9.1
2019-04-27T05:07:01.712Z,9.1
2019-04-27T05:08:01.764Z,9.1
2019-04-27T05:09:05.164Z,9.1
2019-04-27T05:10:01.867Z,9.1
2019-04-27T05:11:01.911Z,9.1
2019-04-27T05:12:02.003Z,9.1
2019-04-27T05:13:02.013Z,9.1
2019-04-27T05:14:02.084Z,9.1
2019-04-27T05:15:02.198Z,9.1
2019-04-27T05:16:02.202Z,9.1
2019-04-27T05:17:02.290Z,9.1
2019-04-27T05:18:02.367Z,9.1
2019-04-27T05:19:02.399Z,9.1
2019-04-27T05:20:02.468Z,9.1
2019-04-27T05:21:02.512Z,9.1
2019-04-27T05:22:02.596Z,9.1
2019-04-27T05:23:02.619Z,9.1
2019-04-27T05:24:02.652Z,9.1
2019-04-27T05:25:02.726Z,9.1
2019-04-27T05:26:02.779Z,9.1
2019-04-27T05:27:02.818Z,9.1
2019-04-27T05:28:02.846Z,9.1
2019-04-27T05:29:02.937Z,9.1
2019-04-27T05:30:03.003Z,9.1
2019-04-27T05:31:03.031Z,9.1
2019-04-27T05:32:03.091Z,9.1
2019-04-27T05:33:05.202Z,9.1
2019-04-27T05:34:03.213Z,9.1
2019-04-27T05:35:06.359Z,9.1
2019-04-27T05:36:03.351Z,9.1
2019-04-27T05:37:03.762Z,9.1
2019-04-27T05:38:07.120Z,9.1
2019-04-27T05:39:03.531Z,9.1
2019-04-27T05:40:03.638Z,9.1
2019-04-27T05:41:03.878Z,9.1
2019-04-27T05:42:03.651Z,9.1
2019-04-27T05:43:03.909Z,9.1
2019-04-27T05:44:07.524Z,9.1
2019-04-27T05:45:04.222Z,9.1
2019-04-27T05:46:03.930Z,9.1
2019-04-27T05:47:05.255Z,9.1
2019-04-27T05:48:04.620Z,9.1
2019-04-27T05:49:06.129Z,9.1
2019-04-27T05:50:04.569Z,9
2019-04-27T05:51:04.616Z,9
2019-04-27T05:52:08.446Z,9
2019-04-27T05:53:05.016Z,9
2019-04-27T05:54:04.885Z,9
2019-04-27T05:55:05.293Z,9
2019-04-27T05:56:05.231Z,9
2019-04-27T05:57:04.616Z,9
2019-04-27T05:58:05.552Z,9
2019-04-27T05:59:06.157Z,9
2019-04-27T06:00:06.263Z,9
2019-04-27T06:01:06.445Z,9
2019-04-27T06:02:05.415Z,9
2019-04-27T06:03:06.880Z,9
2019-04-27T06:04:06.800Z,9
2019-04-27T06:05:08.770Z,9
2019-04-27T06:06:09.496Z,9
2019-04-27T06:08:05.619Z,9
2019-04-27T06:10:06.815Z,9
2019-04-27T06:11:05.787Z,9
2019-04-27T06:13:05.482Z,9
2019-04-27T06:15:05.999Z,9
2019-04-27T06:16:05.537Z,9
2019-04-27T06:17:05.660Z,9
2019-04-27T06:18:06.038Z,9
2019-04-27T06:19:05.999Z,9
2019-04-27T06:20:06.089Z,9
2019-04-27T06:21:05.784Z,9
2019-04-27T06:22:05.884Z,9
2019-04-27T06:23:05.895Z,9
2019-04-27T06:24:05.941Z,9
2019-04-27T06:25:06.031Z,9
2019-04-27T06:26:06.101Z,9
2019-04-27T06:27:06.157Z,9
2019-04-27T06:28:06.192Z,9
2019-04-27T06:29:06.270Z,9
2019-04-27T06:30:06.369Z,9
2019-04-27T06:31:06.356Z,8.9
2019-04-27T06:32:06.421Z,8.9
2019-04-27T06:33:06.446Z,8.9
2019-04-27T06:34:06.513Z,8.9
2019-04-27T06:35:06.687Z,8.9
2019-04-27T06:36:06.643Z,8.9
2019-04-27T06:37:06.725Z,8.9
2019-04-27T06:38:06.754Z,8.9
2019-04-27T06:39:06.908Z,8.9
2019-04-27T06:40:06.879Z,8.9
2019-04-27T06:41:06.944Z,8.9
2019-04-27T06:42:16.545Z,8.9
2019-04-27T06:44:15.530Z,8.9
2019-04-27T06:45:07.139Z,8.9
2019-04-27T06:46:08.758Z,8.9
2019-04-27T06:47:09.171Z,8.9
2019-04-27T06:48:09.452Z,8.9
2019-04-27T06:50:08.445Z,8.9
2019-04-27T06:51:09.446Z,8.9
2019-04-27T06:53:09.063Z,8.9
2019-04-27T06:57:09.181Z,8.9
2019-04-27T06:58:08.944Z,8.9
2019-04-27T07:00:09.048Z,8.9
2019-04-27T07:02:08.686Z,8.9
2019-04-27T07:03:08.948Z,8.9
2019-04-27T07:04:08.512Z,8.9
2019-04-27T07:08:08.973Z,8.9
2019-04-27T07:09:12.106Z,8.9
2019-04-27T07:10:08.637Z,8.9
2019-04-27T07:11:08.602Z,8.9
2019-04-27T07:13:09.597Z,8.9
2019-04-27T07:15:08.932Z,8.9
2019-04-27T07:17:08.978Z,9
2019-04-27T07:18:09.689Z,9
2019-04-27T07:19:12.128Z,9
2019-04-27T07:20:09.152Z,9
2019-04-27T07:21:16.820Z,9
2019-04-27T07:22:11.324Z,9
2019-04-27T07:23:09.530Z,9
2019-04-27T07:24:09.139Z,9
2019-04-27T07:25:10.861Z,9
2019-04-27T07:26:09.416Z,9.1
2019-04-27T07:27:09.401Z,9.1
2019-04-27T07:28:09.369Z,9.1
2019-04-27T07:29:09.731Z,9.1
2019-04-27T07:30:11.719Z,9.1
2019-04-27T07:31:09.764Z,9.1
2019-04-27T07:32:09.559Z,9.1
2019-04-27T07:33:09.659Z,9.1
2019-04-27T07:34:09.696Z,9.1
2019-04-27T07:35:09.959Z,9.1
2019-04-27T07:36:15.130Z,9.1
2019-04-27T07:37:11.101Z,9.1
2019-04-27T07:38:10.992Z,9.1
2019-04-27T07:39:30.080Z,9.1
2019-04-27T07:40:12.144Z,9.1
2019-04-27T07:41:10.132Z,9.1
2019-04-27T07:42:10.392Z,9.1
2019-04-27T07:43:10.233Z,9.1
2019-04-27T07:44:11.434Z,9.1
2019-04-27T07:45:15.073Z,9.1
2019-04-27T07:46:15.109Z,9.1
2019-04-27T07:47:10.469Z,9.1
2019-04-27T07:48:30.925Z,9.1
2019-04-27T07:49:15.058Z,9.1
2019-04-27T07:50:14.563Z,9.1
2019-04-27T07:51:10.638Z,9.1
2019-04-27T07:52:10.821Z,9.1
2019-04-27T07:53:10.726Z,9.1
2019-04-27T07:54:12.937Z,9.1
2019-04-27T07:55:10.851Z,9.1
2019-04-27T07:56:14.168Z,9.1
2019-04-27T07:57:10.966Z,9.2
2019-04-27T07:58:10.998Z,9.2
2019-04-27T07:59:21.154Z,9.2
2019-04-27T08:00:11.130Z,9.2
2019-04-27T08:01:11.150Z,9.2
2019-04-27T08:02:11.243Z,9.2
2019-04-27T08:03:49.022Z,9.2
2019-04-27T08:04:12.315Z,9.2
2019-04-27T08:05:11.536Z,9.2
2019-04-27T08:06:11.654Z,9.2
2019-04-27T08:07:11.732Z,9.2
2019-04-27T08:08:13.160Z,9.2
2019-04-27T08:09:11.822Z,9.2
2019-04-27T08:10:11.636Z,9.2
2019-04-27T08:11:11.677Z,9.2
2019-04-27T08:12:11.763Z,9.2
2019-04-27T08:13:11.790Z,9.1
2019-04-27T08:14:12.257Z,9.1
2019-04-27T08:15:11.937Z,9.1
2019-04-27T08:16:11.987Z,9.1
2019-04-27T08:17:12.010Z,9.1
2019-04-27T08:18:12.769Z,9.1
2019-04-27T08:19:12.127Z,9.1
2019-04-27T08:20:12.176Z,9.1
2019-04-27T08:21:12.556Z,9.1
2019-04-27T08:22:13.518Z,9.1
2019-04-27T08:23:12.522Z,9.1
2019-04-27T08:24:30.837Z,9.2
2019-04-27T08:25:12.472Z,9.2
2019-04-27T08:26:12.526Z,9.2
2019-04-27T08:27:21.062Z,9.2
2019-04-27T08:28:13.091Z,9.2
2019-04-27T08:29:21.245Z,9.2
2019-04-27T08:30:21.083Z,9.2
2019-04-27T08:31:12.783Z,9.2
2019-04-27T08:32:12.856Z,9.2
2019-04-27T08:33:13.350Z,9.2
2019-04-27T08:34:14.199Z,9.2
2019-04-27T08:35:13.141Z,9.2
2019-04-27T08:36:18.979Z,9.3
2019-04-27T08:37:13.428Z,9.3
2019-04-27T08:38:13.562Z,9.3
2019-04-27T08:39:13.624Z,9.3
2019-04-27T08:40:13.599Z,9.3
2019-04-27T08:41:42.393Z,9.3
2019-04-27T08:42:13.855Z,9.3
2019-04-27T08:43:13.930Z,9.3
2019-04-27T08:44:13.833Z,9.3
2019-04-27T08:45:13.905Z,9.3
2019-04-27T08:46:14.012Z,9.4
2019-04-27T08:47:13.964Z,9.4
2019-04-27T08:48:14.097Z,9.4
2019-04-27T08:49:14.110Z,9.5
2019-04-27T08:50:14.193Z,9.5
2019-04-27T08:51:14.223Z,9.6
2019-04-27T08:52:15.112Z,9.6
2019-04-27T08:53:14.342Z,9.7
2019-04-27T08:54:14.364Z,9.7
2019-04-27T08:55:14.439Z,9.8
2019-04-27T08:56:14.465Z,9.8
2019-04-27T08:57:14.516Z,9.8
2019-04-27T08:58:14.546Z,9.8
2019-04-27T08:59:14.594Z,9.8
2019-04-27T09:00:14.656Z,9.8
2019-04-27T09:01:14.710Z,9.8
2019-04-27T09:02:14.772Z,9.9
2019-04-27T09:03:14.780Z,9.9
2019-04-27T09:04:14.920Z,9.9
2019-04-27T09:05:14.919Z,9.9
2019-04-27T09:06:14.986Z,9.8
2019-04-27T09:07:15.134Z,9.9
2019-04-27T09:08:15.128Z,9.9
2019-04-27T09:09:15.139Z,9.9
2019-04-27T09:10:15.509Z,9.9
2019-04-27T09:11:15.272Z,9.9
2019-04-27T09:12:15.389Z,10
2019-04-27T09:13:15.379Z,10
2019-04-27T09:14:15.480Z,10.1
2019-04-27T09:15:15.638Z,10.2
2019-04-27T09:16:15.575Z,10.2
2019-04-27T09:17:15.696Z,10.2
2019-04-27T09:18:15.699Z,10.3
2019-04-27T09:19:15.830Z,10.3
2019-04-27T09:20:15.974Z,10.3
2019-04-27T09:21:16.037Z,10.4
2019-04-27T09:22:16.762Z,10.4
2019-04-27T09:23:15.974Z,10.5
2019-04-27T09:24:16.014Z,10.5
2019-04-27T09:25:16.148Z,10.6
2019-04-27T09:26:16.179Z,10.6
2019-04-27T09:27:17.742Z,10.7
2019-04-27T09:28:16.336Z,10.9
2019-04-27T09:29:16.286Z,11
2019-04-27T09:30:16.344Z,11.1
2019-04-27T09:31:16.453Z,11.1
2019-04-27T09:32:16.576Z,11.1
2019-04-27T09:33:16.488Z,11.2
2019-04-27T09:34:16.888Z,11.2
2019-04-27T09:35:16.639Z,11.2
2019-04-27T09:36:16.687Z,11.2
2019-04-27T09:37:16.828Z,11.2
2019-04-27T09:38:18.457Z,11.2
2019-04-27T09:39:16.882Z,11.2
2019-04-27T09:40:17.174Z,11.1
2019-04-27T09:41:17.426Z,11.1
2019-04-27T09:42:17.034Z,11.2
2019-04-27T09:43:17.094Z,11.2
2019-04-27T09:44:17.133Z,11.2
2019-04-27T09:45:17.195Z,11.2
2019-04-27T09:46:17.254Z,11.3
2019-04-27T09:47:17.325Z,11.4
2019-04-27T09:48:17.616Z,11.6
2019-04-27T09:49:17.453Z,11.7
2019-04-27T09:50:17.455Z,11.9
2019-04-27T09:51:17.513Z,12.2
2019-04-27T09:52:24.228Z,12.3
2019-04-27T09:53:17.683Z,12.3
2019-04-27T09:54:17.801Z,12.3
2019-04-27T09:55:17.784Z,12.3
2019-04-27T09:56:17.791Z,12.2
2019-04-27T09:57:17.886Z,12.1
2019-04-27T09:58:18.433Z,12.1
2019-04-27T09:59:18.032Z,12.2
2019-04-27T10:00:18.360Z,12.2
2019-04-27T10:01:19.057Z,12.3
2019-04-27T10:02:18.360Z,12.5
2019-04-27T10:03:18.323Z,12.7
2019-04-27T10:04:18.274Z,12.9
2019-04-27T10:05:18.959Z,12.8
2019-04-27T10:06:18.349Z,12.7
2019-04-27T10:07:33.615Z,12.7
2019-04-27T10:09:18.478Z,12.8
2019-04-27T10:10:18.585Z,12.8
2019-04-27T10:11:18.986Z,12.8
2019-04-27T10:12:18.702Z,12.7
2019-04-27T10:13:18.737Z,12.8
2019-04-27T10:14:18.747Z,12.9
2019-04-27T10:15:18.809Z,13.1
2019-04-27T10:16:18.879Z,13.2
2019-04-27T10:17:18.936Z,13.4
2019-04-27T10:18:19.010Z,13.6
2019-04-27T10:19:28.457Z,13.5
2019-04-27T10:20:19.906Z,13.4
2019-04-27T10:21:19.132Z,13.5
2019-04-27T10:22:19.180Z,13.4
2019-04-27T10:23:19.234Z,13.3
2019-04-27T10:24:19.277Z,13.2
2019-04-27T10:25:19.326Z,13.2
2019-04-27T10:26:19.428Z,13.3
2019-04-27T10:27:19.460Z,13.4
2019-04-27T10:28:19.491Z,13.5
2019-04-27T10:29:19.528Z,13.6
2019-04-27T10:30:19.610Z,13.7
2019-04-27T10:31:19.718Z,13.9
2019-04-27T10:32:20.370Z,14.1
2019-04-27T10:33:19.844Z,14.3
2019-04-27T10:34:20.201Z,14.5
2019-04-27T10:35:20.009Z,14.6
2019-04-27T10:36:20.020Z,14.8
2019-04-27T10:37:20.004Z,14.9
2019-04-27T10:38:20.116Z,15.1
2019-04-27T10:39:20.187Z,15
2019-04-27T10:40:20.325Z,14.9
2019-04-27T10:41:20.249Z,14.7
2019-04-27T10:42:20.253Z,14.6
2019-04-27T10:43:20.283Z,14.6
2019-04-27T10:44:21.424Z,14.6
2019-04-27T10:45:20.706Z,14.7
2019-04-27T10:46:20.437Z,15
2019-04-27T10:47:23.408Z,15
2019-04-27T10:48:21.180Z,15
2019-04-27T10:49:21.650Z,14.9
2019-04-27T10:50:20.925Z,14.7
2019-04-27T10:51:21.065Z,14.5
2019-04-27T10:52:22.672Z,14.5
2019-04-27T10:53:24.123Z,14.6
2019-04-27T10:54:20.885Z,14.7
2019-04-27T10:55:20.926Z,15
2019-04-27T10:56:21.195Z,15.2
2019-04-27T10:57:21.051Z,15.2
2019-04-27T10:58:21.096Z,15.3
2019-04-27T10:59:21.173Z,15.3
2019-04-27T11:00:21.174Z,15.3
2019-04-27T11:01:21.201Z,15.4
2019-04-27T11:02:21.588Z,15.4
2019-04-27T11:03:21.520Z,15.4
2019-04-27T11:04:21.374Z,15.3
2019-04-27T11:05:21.423Z,15.2
2019-04-27T11:06:21.531Z,15.3
2019-04-27T11:07:21.587Z,15.4
2019-04-27T11:08:21.624Z,15.6
2019-04-27T11:09:22.432Z,15.7
2019-04-27T11:10:21.803Z,15.7
2019-04-27T11:11:21.871Z,15.6
2019-04-27T11:12:21.893Z,15.5
2019-04-27T11:13:22.229Z,15.4
2019-04-27T11:14:22.014Z,15.3
2019-04-27T11:15:21.997Z,15.2
2019-04-27T11:16:22.560Z,15.1
2019-04-27T11:17:22.317Z,15.1
2019-04-27T11:18:22.951Z,15.1
2019-04-27T11:19:23.139Z,15.4
2019-04-27T11:20:22.317Z,15.6
2019-04-27T11:21:22.424Z,15.7
2019-04-27T11:22:22.367Z,15.8
2019-04-27T11:23:22.655Z,15.8
2019-04-27T11:24:22.581Z,15.6
2019-04-27T11:25:22.642Z,15.7
2019-04-27T11:26:22.695Z,15.6
2019-04-27T11:27:22.723Z,15.6
2019-04-27T11:28:22.825Z,15.6
2019-04-27T11:29:22.841Z,15.5
2019-04-27T11:30:22.803Z,15.5
2019-04-27T11:31:23.065Z,15.5
2019-04-27T11:32:22.948Z,15.4
2019-04-27T11:33:23.099Z,15.6
2019-04-27T11:34:25.682Z,15.6
2019-04-27T11:35:25.780Z,15.6
2019-04-27T11:36:27.750Z,15.6
2019-04-27T11:37:23.454Z,15.6
2019-04-27T11:38:23.259Z,15.7
2019-04-27T11:39:23.311Z,15.7
2019-04-27T11:40:23.383Z,15.8
2019-04-27T11:41:26.185Z,15.8
2019-04-27T11:42:23.533Z,15.9
2019-04-27T11:43:26.093Z,15.9
2019-04-27T11:44:25.741Z,15.9
2019-04-27T11:45:26.433Z,15.8
2019-04-27T11:46:26.625Z,16
2019-04-27T11:47:23.779Z,16
2019-04-27T11:48:23.819Z,16
2019-04-27T11:49:25.587Z,15.9
2019-04-27T11:50:25.457Z,15.9
2019-04-27T11:51:24.009Z,15.8
2019-04-27T11:52:24.057Z,15.8
2019-04-27T11:53:25.979Z,15.9
2019-04-27T11:54:25.521Z,15.8
2019-04-27T11:55:24.182Z,15.7
2019-04-27T11:56:24.240Z,15.7
2019-04-27T11:57:28.806Z,15.7
2019-04-27T11:58:27.206Z,15.7
2019-04-27T11:59:24.436Z,15.6
2019-04-27T12:00:24.410Z,15.7
2019-04-27T12:01:24.485Z,15.7
2019-04-27T12:02:25.740Z,15.8
2019-04-27T12:03:24.589Z,15.8
2019-04-27T12:04:26.238Z,15.7
2019-04-27T12:05:26.065Z,15.6
2019-04-27T12:06:25.834Z,15.5
2019-04-27T12:07:24.786Z,15.4
2019-04-27T12:08:26.431Z,15.4
2019-04-27T12:09:24.898Z,15.3
2019-04-27T12:10:26.231Z,15.3
2019-04-27T12:11:26.086Z,15.2
2019-04-27T12:12:26.175Z,15.3
2019-04-27T12:13:25.910Z,15.2
2019-04-27T12:14:25.169Z,15.1
2019-04-27T12:15:26.214Z,15.1
2019-04-27T12:16:26.140Z,15.1
2019-04-27T12:17:26.638Z,15
2019-04-27T12:18:25.362Z,15.1
2019-04-27T12:19:26.791Z,15
2019-04-27T12:20:25.927Z,15
2019-04-27T12:21:25.510Z,15
2019-04-27T12:22:25.639Z,14.9
2019-04-27T12:23:33.600Z,14.8
2019-04-27T12:24:26.695Z,14.7
2019-04-27T12:25:25.915Z,14.7
2019-04-27T12:26:26.067Z,14.7
2019-04-27T12:27:26.056Z,14.7
2019-04-27T12:28:27.154Z,14.7
2019-04-27T12:29:26.616Z,14.8
2019-04-27T12:30:26.221Z,14.7
2019-04-27T12:31:26.245Z,14.7
2019-04-27T12:32:26.216Z,14.7
2019-04-27T12:33:27.643Z,14.7
2019-04-27T12:34:27.900Z,14.6
2019-04-27T12:35:26.317Z,14.6
2019-04-27T12:36:26.348Z,14.6
2019-04-27T12:37:26.852Z,14.7
2019-04-27T12:38:28.196Z,14.6
2019-04-27T12:39:26.807Z,14.6
2019-04-27T12:40:26.894Z,14.6
2019-04-27T12:41:26.585Z,14.6
2019-04-27T12:42:28.786Z,14.7
2019-04-27T12:43:29.345Z,14.6
2019-04-27T12:44:40.239Z,14.7
2019-04-27T12:45:27.384Z,14.6
2019-04-27T12:46:26.967Z,14.6
2019-04-27T12:47:26.915Z,14.7
2019-04-27T12:48:26.986Z,14.7
2019-04-27T12:49:27.079Z,14.7
2019-04-27T12:50:27.076Z,14.6
2019-04-27T12:51:27.098Z,14.6
2019-04-27T12:52:27.150Z,14.7
2019-04-27T12:53:27.248Z,14.7
2019-04-27T12:54:27.344Z,14.7
2019-04-27T12:55:27.372Z,14.7
2019-04-27T12:56:27.430Z,14.7
2019-04-27T12:57:27.448Z,14.6
2019-04-27T12:58:27.598Z,14.7
2019-04-27T12:59:36.509Z,14.7
2019-04-27T13:00:28.044Z,14.6
2019-04-27T13:01:28.026Z,14.6
2019-04-27T13:02:27.961Z,14.7
2019-04-27T13:03:28.083Z,14.6
2019-04-27T13:04:27.873Z,14.7
2019-04-27T13:05:28.261Z,14.7
2019-04-27T13:06:27.963Z,14.6
2019-04-27T13:07:28.013Z,14.5
2019-04-27T13:08:30.588Z,14.5
2019-04-27T13:09:29.875Z,14.5
2019-04-27T13:10:28.236Z,14.6
2019-04-27T13:11:28.264Z,14.6
2019-04-27T13:12:28.328Z,14.7
2019-04-27T13:13:28.395Z,14.7
2019-04-27T13:14:28.873Z,14.8
2019-04-27T13:15:28.583Z,14.8
2019-04-27T13:16:30.360Z,14.8
2019-04-27T13:17:28.691Z,14.8
2019-04-27T13:18:30.175Z,14.7
2019-04-27T13:19:28.784Z,14.7
2019-04-27T13:20:28.908Z,14.7
2019-04-27T13:21:28.872Z,14.6
2019-04-27T13:22:29.225Z,14.6
2019-04-27T13:23:28.977Z,14.6
2019-04-27T13:24:29.028Z,14.6
2019-04-27T13:25:29.113Z,14.5
2019-04-27T13:26:33.091Z,14.5
2019-04-27T13:27:33.720Z,14.5
2019-04-27T13:28:29.828Z,14.5
2019-04-27T13:29:31.023Z,14.5
2019-04-27T13:30:29.362Z,14.5
2019-04-27T13:31:31.087Z,14.5
2019-04-27T13:32:31.052Z,14.6
2019-04-27T13:33:31.033Z,14.6
2019-04-27T13:34:33.090Z,14.7
2019-04-27T13:35:29.625Z,14.8
2019-04-27T13:36:29.677Z,14.8
2019-04-27T13:37:29.704Z,14.8
2019-04-27T13:38:29.791Z,14.7
2019-04-27T13:39:29.887Z,14.7
2019-04-27T13:40:29.874Z,14.7
2019-04-27T13:41:32.811Z,14.7
2019-04-27T13:42:30.043Z,14.6
2019-04-27T13:43:30.051Z,14.6
2019-04-27T13:44:30.420Z,14.6
2019-04-27T13:45:30.229Z,14.6
2019-04-27T13:46:30.221Z,14.6
2019-04-27T13:47:30.261Z,14.6
2019-04-27T13:48:30.365Z,14.5
2019-04-27T13:49:30.371Z,14.5
2019-04-27T13:50:30.473Z,14.5
2019-04-27T13:51:30.479Z,14.5
2019-04-27T13:52:30.514Z,14.5
2019-04-27T13:53:30.567Z,14.6
2019-04-27T13:54:30.633Z,14.6
2019-04-27T13:55:30.672Z,14.6
2019-04-27T13:56:30.721Z,14.6
2019-04-27T13:57:31.232Z,14.6
2019-04-27T13:58:30.891Z,14.6
2019-04-27T13:59:31.789Z,14.6
2019-04-27T14:00:30.976Z,14.6